sensor_id;sensor_type;location;lat;lon;timestamp;pressure;altitude;pressure_sealevel;temperature;humidity
3250;BME280;1637;42.020;23.992;2022-12-31T00:01:44;93825.44;;;1.13;100.00
3250;BME280;1637;42.020;23.992;2022-12-31T00:04:11;93838.53;;;1.00;100.00
3250;BME280;1637;42.020;23.992;2022-12-31T00:06:38;93838.44;;;0.62;100.00
3250;BME280;1637;42.020;23.992;2022-12-31T00:09:07;93813.19;;;0.27;100.00
3250;BME280;1637;42.020;23.992;2022-12-31T00:11:34;93830.09;;;0.26;100.00
3250;BME280;1637;42.020;23.992;2022-12-31T00:14:01;93842.66;;;0.12;100.00
3250;BME280;1637;42.020;23.992;2022-12-31T00:16:30;93835.97;;;0.06;100.00
3250;BME280;1637;42.020;23.992;2022-12-31T00:18:59;93845.75;;;-0.04;100.00
3250;BME280;1637;42.020;23.992;2022-12-31T00:21:27;93841.94;;;-0.37;100.00
3250;BME280;1637;42.020;23.992;2022-12-31T00:23:55;93833.75;;;-0.36;100.00
3250;BME280;1637;42.020;23.992;2022-12-31T00:26:25;93851.75;;;-0.12;100.00
3250;BME280;1637;42.020;23.992;2022-12-31T00:28:53;93858.91;;;-0.04;100.00
3250;BME280;1637;42.020;23.992;2022-12-31T00:31:22;93862.28;;;-0.12;100.00
3250;BME280;1637;42.020;23.992;2022-12-31T00:33:49;93844.63;;;-0.20;100.00
3250;BME280;1637;42.020;23.992;2022-12-31T00:36:17;93835.50;;;0.21;100.00
3250;BME280;1637;42.020;23.992;2022-12-31T00:38:45;93875.66;;;0.44;100.00
3250;BME280;1637;42.020;23.992;2022-12-31T00:41:13;93878.16;;;0.57;100.00
3250;BME280;1637;42.020;23.992;2022-12-31T00:43:42;93875.34;;;0.54;100.00
3250;BME280;1637;42.020;23.992;2022-12-31T00:46:10;93873.50;;;0.46;100.00
3250;BME280;1637;42.020;23.992;2022-12-31T00:48:37;93869.91;;;0.67;100.00
3250;BME280;1637;42.020;23.992;2022-12-31T00:51:07;93874.56;;;0.27;100.00
3250;BME280;1637;42.020;23.992;2022-12-31T00:53:34;93878.72;;;0.03;100.00
3250;BME280;1637;42.020;23.992;2022-12-31T00:56:02;93883.84;;;0.08;100.00
3250;BME280;1637;42.020;23.992;2022-12-31T00:58:29;93883.56;;;0.09;100.00
3250;BME280;1637;42.020;23.992;2022-12-31T01:00:57;93871.63;;;0.29;100.00
3250;BME280;1637;42.020;23.992;2022-12-31T01:03:24;93882.97;;;0.38;100.00
3250;BME280;1637;42.020;23.992;2022-12-31T01:05:51;93870.72;;;0.16;100.00
3250;BME280;1637;42.020;23.992;2022-12-31T01:08:18;93869.94;;;0.16;100.00
3250;BME280;1637;42.020;23.992;2022-12-31T01:10:47;93873.66;;;0.15;100.00
3250;BME280;1637;42.020;23.992;2022-12-31T01:13:32;93875.94;;;-0.10;100.00
3250;BME280;1637;42.020;23.992;2022-12-31T01:16:07;93868.84;;;-0.01;100.00
3250;BME280;1637;42.020;23.992;2022-12-31T01:18:34;93878.72;;;-0.06;100.00
3250;BME280;1637;42.020;23.992;2022-12-31T01:21:01;93874.09;;;0.08;100.00
3250;BME280;1637;42.020;23.992;2022-12-31T01:23:29;93880.69;;;-0.20;100.00
3250;BME280;1637;42.020;23.992;2022-12-31T01:25:58;93886.59;;;-0.15;100.00
3250;BME280;1637;42.020;23.992;2022-12-31T01:28:25;93883.06;;;0.07;100.00
3250;BME280;1637;42.020;23.992;2022-12-31T01:30:52;93879.97;;;0.05;100.00
3250;BME280;1637;42.020;23.992;2022-12-31T01:33:20;93877.16;;;-0.16;100.00
3250;BME280;1637;42.020;23.992;2022-12-31T01:35:47;93869.94;;;0.16;100.00
3250;BME280;1637;42.020;23.992;2022-12-31T01:38:14;93867.69;;;-0.17;100.00
3250;BME280;1637;42.020;23.992;2022-12-31T01:40:41;93864.47;;;-0.22;100.00
3250;BME280;1637;42.020;23.992;2022-12-31T01:43:15;93870.63;;;-0.18;100.00
3250;BME280;1637;42.020;23.992;2022-12-31T01:45:43;93876.63;;;-0.35;100.00
3250;BME280;1637;42.020;23.992;2022-12-31T01:48:13;93869.25;;;-0.16;100.00
3250;BME280;1637;42.020;23.992;2022-12-31T01:50:42;93870.84;;;-0.06;100.00
3250;BME280;1637;42.020;23.992;2022-12-31T01:53:10;93839.31;;;-0.37;100.00
3250;BME280;1637;42.020;23.992;2022-12-31T01:55:43;93871.13;;;-0.08;100.00
3250;BME280;1637;42.020;23.992;2022-12-31T01:58:14;93877.44;;;-0.17;100.00
3250;BME280;1637;42.020;23.992;2022-12-31T02:00:41;93867.63;;;-0.51;100.00
3250;BME280;1637;42.020;23.992;2022-12-31T02:03:09;93878.38;;;-0.70;100.00
3250;BME280;1637;42.020;23.992;2022-12-31T02:05:42;93888.13;;;-1.01;100.00
3250;BME280;1637;42.020;23.992;2022-12-31T02:08:10;93880.19;;;-1.10;100.00
3250;BME280;1637;42.020;23.992;2022-12-31T02:10:37;93872.63;;;-1.12;100.00
3250;BME280;1637;42.020;23.992;2022-12-31T02:13:04;93876.78;;;-0.80;100.00
3250;BME280;1637;42.020;23.992;2022-12-31T02:15:40;93884.06;;;-0.85;100.00
3250;BME280;1637;42.020;23.992;2022-12-31T02:18:28;93872.88;;;-0.91;100.00
3250;BME280;1637;42.020;23.992;2022-12-31T02:21:35;93857.63;;;-0.72;100.00
3250;BME280;1637;42.020;23.992;2022-12-31T02:24:43;93869.00;;;-0.54;100.00
3250;BME280;1637;42.020;23.992;2022-12-31T02:27:22;93874.50;;;-0.16;100.00
3250;BME280;1637;42.020;23.992;2022-12-31T02:30:01;93871.16;;;0.10;100.00
3250;BME280;1637;42.020;23.992;2022-12-31T02:32:46;93894.41;;;0.25;100.00
3250;BME280;1637;42.020;23.992;2022-12-31T02:35:18;93813.59;;;-0.40;100.00
3250;BME280;1637;42.020;23.992;2022-12-31T02:37:50;93876.09;;;0.03;100.00
3250;BME280;1637;42.020;23.992;2022-12-31T02:40:20;93882.28;;;-0.11;100.00
3250;BME280;1637;42.020;23.992;2022-12-31T02:42:48;93872.94;;;-0.34;100.00
3250;BME280;1637;42.020;23.992;2022-12-31T02:45:18;93879.22;;;-0.52;100.00
3250;BME280;1637;42.020;23.992;2022-12-31T02:47:53;93886.88;;;-0.73;100.00
3250;BME280;1637;42.020;23.992;2022-12-31T02:50:34;93873.13;;;-1.01;100.00
3250;BME280;1637;42.020;23.992;2022-12-31T02:53:14;93884.19;;;-0.82;100.00
3250;BME280;1637;42.020;23.992;2022-12-31T02:55:52;93894.59;;;-0.37;100.00
3250;BME280;1637;42.020;23.992;2022-12-31T02:58:26;93897.88;;;-0.31;100.00
3250;BME280;1637;42.020;23.992;2022-12-31T03:01:22;93854.63;;;-1.18;100.00
3250;BME280;1637;42.020;23.992;2022-12-31T03:04:10;93898.47;;;-0.74;100.00
3250;BME280;1637;42.020;23.992;2022-12-31T03:06:55;93905.16;;;-0.68;100.00
3250;BME280;1637;42.020;23.992;2022-12-31T03:09:22;93901.19;;;-0.57;100.00
3250;BME280;1637;42.020;23.992;2022-12-31T03:11:49;93897.03;;;-0.49;100.00
3250;BME280;1637;42.020;23.992;2022-12-31T03:14:33;93899.84;;;-0.37;100.00
3250;BME280;1637;42.020;23.992;2022-12-31T03:17:01;93895.00;;;-0.04;100.00
3250;BME280;1637;42.020;23.992;2022-12-31T03:19:28;93895.19;;;-0.40;100.00
3250;BME280;1637;42.020;23.992;2022-12-31T03:22:12;93893.22;;;-0.74;100.00
3250;BME280;1637;42.020;23.992;2022-12-31T03:24:55;93903.97;;;-0.53;100.00
3250;BME280;1637;42.020;23.992;2022-12-31T03:27:40;93896.50;;;-0.60;100.00
3250;BME280;1637;42.020;23.992;2022-12-31T03:30:08;93901.94;;;-0.56;100.00
3250;BME280;1637;42.020;23.992;2022-12-31T03:32:36;93907.91;;;-0.73;100.00
3250;BME280;1637;42.020;23.992;2022-12-31T03:35:04;93916.97;;;-0.57;100.00
3250;BME280;1637;42.020;23.992;2022-12-31T03:37:31;93914.38;;;-0.48;100.00
3250;BME280;1637;42.020;23.992;2022-12-31T03:39:58;93909.66;;;-0.20;100.00
3250;BME280;1637;42.020;23.992;2022-12-31T03:42:24;93915.25;;;-0.13;100.00
3250;BME280;1637;42.020;23.992;2022-12-31T03:44:51;93912.44;;;-0.25;100.00
3250;BME280;1637;42.020;23.992;2022-12-31T03:47:18;93911.09;;;-0.06;100.00
3250;BME280;1637;42.020;23.992;2022-12-31T03:49:46;93912.34;;;0.06;100.00
3250;BME280;1637;42.020;23.992;2022-12-31T03:52:13;93906.88;;;-0.24;100.00
3250;BME280;1637;42.020;23.992;2022-12-31T03:54:40;93892.50;;;-0.57;100.00
3250;BME280;1637;42.020;23.992;2022-12-31T03:57:07;93895.72;;;-0.29;100.00
3250;BME280;1637;42.020;23.992;2022-12-31T03:59:33;93914.91;;;-0.20;100.00
3250;BME280;1637;42.020;23.992;2022-12-31T04:02:00;93913.34;;;-0.30;100.00
3250;BME280;1637;42.020;23.992;2022-12-31T04:04:27;93909.25;;;-0.53;100.00
3250;BME280;1637;42.020;23.992;2022-12-31T04:06:55;93899.78;;;-1.16;100.00
3250;BME280;1637;42.020;23.992;2022-12-31T04:09:22;93914.56;;;-0.76;100.00
3250;BME280;1637;42.020;23.992;2022-12-31T04:11:49;93914.78;;;-0.24;100.00
3250;BME280;1637;42.020;23.992;2022-12-31T04:14:16;93890.69;;;0.00;100.00
3250;BME280;1637;42.020;23.992;2022-12-31T04:16:43;93874.41;;;0.07;100.00
3250;BME280;1637;42.020;23.992;2022-12-31T04:19:10;93914.09;;;0.27;100.00
3250;BME280;1637;42.020;23.992;2022-12-31T04:21:37;93913.97;;;0.41;100.00
3250;BME280;1637;42.020;23.992;2022-12-31T04:24:06;93923.72;;;0.41;100.00
3250;BME280;1637;42.020;23.992;2022-12-31T04:26:33;93917.84;;;0.52;100.00
3250;BME280;1637;42.020;23.992;2022-12-31T04:29:00;93925.88;;;0.47;100.00
3250;BME280;1637;42.020;23.992;2022-12-31T04:31:27;93923.25;;;0.30;100.00
3250;BME280;1637;42.020;23.992;2022-12-31T04:33:54;93922.63;;;0.50;100.00
3250;BME280;1637;42.020;23.992;2022-12-31T04:36:21;93887.28;;;0.25;100.00
3250;BME280;1637;42.020;23.992;2022-12-31T04:38:48;93881.47;;;-0.20;100.00
3250;BME280;1637;42.020;23.992;2022-12-31T04:41:16;93891.44;;;-0.08;100.00
3250;BME280;1637;42.020;23.992;2022-12-31T04:43:44;93931.28;;;0.25;100.00
3250;BME280;1637;42.020;23.992;2022-12-31T04:46:11;93928.53;;;0.47;100.00
3250;BME280;1637;42.020;23.992;2022-12-31T04:48:38;93919.53;;;0.48;100.00
3250;BME280;1637;42.020;23.992;2022-12-31T04:51:05;93928.81;;;0.20;100.00
3250;BME280;1637;42.020;23.992;2022-12-31T04:53:32;93946.78;;;0.26;100.00
3250;BME280;1637;42.020;23.992;2022-12-31T04:55:59;93928.50;;;0.13;100.00
3250;BME280;1637;42.020;23.992;2022-12-31T04:58:27;93946.38;;;-0.24;100.00
3250;BME280;1637;42.020;23.992;2022-12-31T05:00:54;93939.25;;;-0.15;100.00
3250;BME280;1637;42.020;23.992;2022-12-31T05:03:23;93929.84;;;-0.07;100.00
3250;BME280;1637;42.020;23.992;2022-12-31T05:05:51;93926.09;;;-0.15;100.00
3250;BME280;1637;42.020;23.992;2022-12-31T05:08:18;93930.72;;;-0.20;100.00
3250;BME280;1637;42.020;23.992;2022-12-31T05:10:46;93944.56;;;0.03;100.00
3250;BME280;1637;42.020;23.992;2022-12-31T05:13:14;93933.94;;;0.16;100.00
3250;BME280;1637;42.020;23.992;2022-12-31T05:15:42;93935.50;;;0.43;100.00
3250;BME280;1637;42.020;23.992;2022-12-31T05:18:12;93949.16;;;0.54;100.00
3250;BME280;1637;42.020;23.992;2022-12-31T05:20:39;93944.63;;;0.20;100.00
3250;BME280;1637;42.020;23.992;2022-12-31T05:23:06;93943.31;;;-0.09;100.00
3250;BME280;1637;42.020;23.992;2022-12-31T05:25:33;93945.59;;;-0.24;100.00
3250;BME280;1637;42.020;23.992;2022-12-31T05:28:01;93949.19;;;-0.12;100.00
3250;BME280;1637;42.020;23.992;2022-12-31T05:30:27;93952.47;;;-0.06;100.00
3250;BME280;1637;42.020;23.992;2022-12-31T05:32:56;93965.72;;;-0.20;100.00
3250;BME280;1637;42.020;23.992;2022-12-31T05:35:22;93953.72;;;-0.43;100.00
3250;BME280;1637;42.020;23.992;2022-12-31T05:37:49;93965.19;;;-0.39;100.00
3250;BME280;1637;42.020;23.992;2022-12-31T05:40:16;93968.88;;;-0.09;100.00
3250;BME280;1637;42.020;23.992;2022-12-31T05:42:43;93967.63;;;-0.12;100.00
3250;BME280;1637;42.020;23.992;2022-12-31T05:45:10;93961.28;;;-0.11;100.00
3250;BME280;1637;42.020;23.992;2022-12-31T05:47:38;93963.69;;;0.17;100.00
3250;BME280;1637;42.020;23.992;2022-12-31T05:50:08;93970.81;;;0.25;100.00
3250;BME280;1637;42.020;23.992;2022-12-31T05:52:36;93939.03;;;0.13;100.00
3250;BME280;1637;42.020;23.992;2022-12-31T05:55:04;93980.28;;;0.43;100.00
3250;BME280;1637;42.020;23.992;2022-12-31T05:57:31;93989.44;;;0.46;100.00
3250;BME280;1637;42.020;23.992;2022-12-31T05:59:57;93982.94;;;0.34;100.00
3250;BME280;1637;42.020;23.992;2022-12-31T06:02:24;93994.25;;;-0.13;100.00
3250;BME280;1637;42.020;23.992;2022-12-31T06:04:51;93994.25;;;0.35;100.00
3250;BME280;1637;42.020;23.992;2022-12-31T06:07:19;93992.56;;;0.39;100.00
3250;BME280;1637;42.020;23.992;2022-12-31T06:09:46;93993.34;;;0.48;100.00
3250;BME280;1637;42.020;23.992;2022-12-31T06:12:13;93981.06;;;0.35;100.00
3250;BME280;1637;42.020;23.992;2022-12-31T06:14:40;93992.53;;;0.30;100.00
3250;BME280;1637;42.020;23.992;2022-12-31T06:17:07;93992.56;;;0.48;100.00
3250;BME280;1637;42.020;23.992;2022-12-31T06:19:34;93996.75;;;0.49;100.00
3250;BME280;1637;42.020;23.992;2022-12-31T06:22:00;93995.47;;;0.29;100.00
3250;BME280;1637;42.020;23.992;2022-12-31T06:24:28;94002.66;;;-0.03;100.00
3250;BME280;1637;42.020;23.992;2022-12-31T06:26:55;93995.78;;;0.27;100.00
3250;BME280;1637;42.020;23.992;2022-12-31T06:29:22;94029.16;;;0.41;100.00
3250;BME280;1637;42.020;23.992;2022-12-31T06:31:49;94004.50;;;0.54;100.00
3250;BME280;1637;42.020;23.992;2022-12-31T06:34:16;94012.44;;;0.71;100.00
3250;BME280;1637;42.020;23.992;2022-12-31T06:36:42;94017.41;;;0.73;100.00
3250;BME280;1637;42.020;23.992;2022-12-31T06:39:09;94012.13;;;0.55;100.00
3250;BME280;1637;42.020;23.992;2022-12-31T06:41:37;94012.53;;;0.31;100.00
3250;BME280;1637;42.020;23.992;2022-12-31T06:44:04;94012.09;;;0.38;100.00
3250;BME280;1637;42.020;23.992;2022-12-31T06:46:31;94019.56;;;0.62;100.00
3250;BME280;1637;42.020;23.992;2022-12-31T06:48:58;94013.81;;;0.51;100.00
3250;BME280;1637;42.020;23.992;2022-12-31T06:51:25;94019.41;;;0.58;100.00
3250;BME280;1637;42.020;23.992;2022-12-31T06:53:52;94022.34;;;0.57;100.00
3250;BME280;1637;42.020;23.992;2022-12-31T06:56:21;94013.06;;;0.68;100.00
3250;BME280;1637;42.020;23.992;2022-12-31T06:58:51;94009.88;;;0.31;100.00
3250;BME280;1637;42.020;23.992;2022-12-31T07:01:30;94019.25;;;0.63;100.00
3250;BME280;1637;42.020;23.992;2022-12-31T07:04:05;94019.38;;;0.41;100.00
3250;BME280;1637;42.020;23.992;2022-12-31T07:06:39;94023.88;;;0.49;100.00
3250;BME280;1637;42.020;23.992;2022-12-31T07:09:14;94024.31;;;0.43;100.00
3250;BME280;1637;42.020;23.992;2022-12-31T07:11:53;94036.00;;;0.67;100.00
3250;BME280;1637;42.020;23.992;2022-12-31T07:14:31;94049.22;;;1.62;100.00
3250;BME280;1637;42.020;23.992;2022-12-31T07:17:05;94048.28;;;3.43;92.04
3250;BME280;1637;42.020;23.992;2022-12-31T07:19:45;94052.22;;;4.03;86.08
3250;BME280;1637;42.020;23.992;2022-12-31T07:22:15;94056.75;;;5.93;77.83
3250;BME280;1637;42.020;23.992;2022-12-31T07:24:42;94068.06;;;7.70;70.17
3250;BME280;1637;42.020;23.992;2022-12-31T07:27:21;94080.69;;;8.76;67.75
3250;BME280;1637;42.020;23.992;2022-12-31T07:30:00;94073.22;;;8.20;67.05
3250;BME280;1637;42.020;23.992;2022-12-31T07:32:38;94070.00;;;8.11;67.43
3250;BME280;1637;42.020;23.992;2022-12-31T07:35:14;94082.47;;;9.18;64.49
3250;BME280;1637;42.020;23.992;2022-12-31T07:37:49;94074.81;;;10.36;59.00
3250;BME280;1637;42.020;23.992;2022-12-31T07:40:21;94098.47;;;11.19;57.92
3250;BME280;1637;42.020;23.992;2022-12-31T07:43:03;94086.44;;;11.53;55.93
3250;BME280;1637;42.020;23.992;2022-12-31T07:45:40;94093.72;;;12.25;54.91
3250;BME280;1637;42.020;23.992;2022-12-31T07:48:20;94104.25;;;11.79;55.62
3250;BME280;1637;42.020;23.992;2022-12-31T07:50:48;94100.72;;;12.76;54.31
3250;BME280;1637;42.020;23.992;2022-12-31T07:53:15;94105.34;;;13.11;52.85
3250;BME280;1637;42.020;23.992;2022-12-31T07:55:42;94103.41;;;12.62;54.67
3250;BME280;1637;42.020;23.992;2022-12-31T07:58:21;94105.78;;;14.61;50.27
3250;BME280;1637;42.020;23.992;2022-12-31T08:00:51;94105.34;;;13.57;51.89
3250;BME280;1637;42.020;23.992;2022-12-31T08:03:31;94019.69;;;12.74;52.58
3250;BME280;1637;42.020;23.992;2022-12-31T08:06:10;94107.28;;;13.35;52.25
3250;BME280;1637;42.020;23.992;2022-12-31T08:08:44;94109.47;;;14.01;51.14
3250;BME280;1637;42.020;23.992;2022-12-31T08:11:21;94105.47;;;14.48;49.71
3250;BME280;1637;42.020;23.992;2022-12-31T08:13:51;94116.69;;;15.02;49.04
3250;BME280;1637;42.020;23.992;2022-12-31T08:16:22;94112.38;;;15.15;47.92
3250;BME280;1637;42.020;23.992;2022-12-31T08:18:49;94104.34;;;14.42;49.69
3250;BME280;1637;42.020;23.992;2022-12-31T08:21:24;94113.03;;;13.59;51.79
3250;BME280;1637;42.020;23.992;2022-12-31T08:24:03;94100.00;;;13.25;52.15
3250;BME280;1637;42.020;23.992;2022-12-31T08:26:36;94098.53;;;11.84;55.55
3250;BME280;1637;42.020;23.992;2022-12-31T08:29:12;94106.41;;;12.50;55.06
3250;BME280;1637;42.020;23.992;2022-12-31T08:31:51;94097.53;;;12.31;55.06
3250;BME280;1637;42.020;23.992;2022-12-31T08:34:24;94107.66;;;12.81;54.16
3250;BME280;1637;42.020;23.992;2022-12-31T08:37:00;94108.47;;;13.20;53.02
3250;BME280;1637;42.020;23.992;2022-12-31T08:39:44;94107.69;;;13.34;53.18
3250;BME280;1637;42.020;23.992;2022-12-31T08:42:21;94113.66;;;14.16;51.38
3250;BME280;1637;42.020;23.992;2022-12-31T08:44:56;94109.50;;;14.85;50.18
3250;BME280;1637;42.020;23.992;2022-12-31T08:47:34;94107.97;;;14.80;49.27
3250;BME280;1637;42.020;23.992;2022-12-31T08:50:05;94105.22;;;14.91;48.97
3250;BME280;1637;42.020;23.992;2022-12-31T08:52:33;94101.91;;;14.62;50.33
3250;BME280;1637;42.020;23.992;2022-12-31T08:55:00;94077.38;;;14.38;49.58
3250;BME280;1637;42.020;23.992;2022-12-31T08:57:32;94086.31;;;14.94;49.42
3250;BME280;1637;42.020;23.992;2022-12-31T09:00:05;94081.09;;;13.71;53.38
3250;BME280;1637;42.020;23.992;2022-12-31T09:02:52;94056.34;;;14.82;50.30
3250;BME280;1637;42.020;23.992;2022-12-31T09:05:25;94079.38;;;14.93;50.36
3250;BME280;1637;42.020;23.992;2022-12-31T09:08:03;94075.09;;;15.44;48.28
3250;BME280;1637;42.020;23.992;2022-12-31T09:10:39;94072.72;;;15.05;50.01
3250;BME280;1637;42.020;23.992;2022-12-31T09:13:15;94071.06;;;16.00;47.12
3250;BME280;1637;42.020;23.992;2022-12-31T09:15:52;94062.34;;;13.25;52.79
3250;BME280;1637;42.020;23.992;2022-12-31T09:18:25;94057.25;;;14.61;50.75
3250;BME280;1637;42.020;23.992;2022-12-31T09:20:53;94059.00;;;14.89;49.73
3250;BME280;1637;42.020;23.992;2022-12-31T09:23:20;94059.47;;;15.21;49.52
3250;BME280;1637;42.020;23.992;2022-12-31T09:25:55;94056.13;;;15.10;49.83
3250;BME280;1637;42.020;23.992;2022-12-31T09:28:33;94048.00;;;16.23;47.06
3250;BME280;1637;42.020;23.992;2022-12-31T09:31:06;94036.22;;;14.31;51.83
3250;BME280;1637;42.020;23.992;2022-12-31T09:33:40;94036.03;;;15.15;49.54
3250;BME280;1637;42.020;23.992;2022-12-31T09:36:13;94041.50;;;15.86;48.29
3250;BME280;1637;42.020;23.992;2022-12-31T09:38:47;94034.69;;;14.30;50.18
3250;BME280;1637;42.020;23.992;2022-12-31T09:41:33;94028.97;;;14.83;50.26
3250;BME280;1637;42.020;23.992;2022-12-31T09:44:51;94027.88;;;15.63;48.32
3250;BME280;1637;42.020;23.992;2022-12-31T09:47:55;94020.16;;;15.99;48.41
3250;BME280;1637;42.020;23.992;2022-12-31T09:50:41;94010.75;;;16.07;48.81
3250;BME280;1637;42.020;23.992;2022-12-31T09:53:37;94017.59;;;15.47;49.09
3250;BME280;1637;42.020;23.992;2022-12-31T09:56:11;94013.63;;;15.18;50.17
3250;BME280;1637;42.020;23.992;2022-12-31T09:58:51;94016.97;;;15.73;48.96
3250;BME280;1637;42.020;23.992;2022-12-31T10:01:32;94007.47;;;14.72;50.40
3250;BME280;1637;42.020;23.992;2022-12-31T10:04:15;93999.22;;;14.35;52.04
3250;BME280;1637;42.020;23.992;2022-12-31T10:07:00;94020.97;;;14.72;50.35
3250;BME280;1637;42.020;23.992;2022-12-31T10:09:41;93998.69;;;15.47;48.44
3250;BME280;1637;42.020;23.992;2022-12-31T10:12:29;93975.50;;;15.16;48.95
3250;BME280;1637;42.020;23.992;2022-12-31T10:15:20;93991.22;;;14.79;49.69
3250;BME280;1637;42.020;23.992;2022-12-31T10:17:58;93984.56;;;14.95;49.50
3250;BME280;1637;42.020;23.992;2022-12-31T10:20:44;93983.66;;;15.08;49.76
3250;BME280;1637;42.020;23.992;2022-12-31T10:23:48;93974.81;;;15.45;47.94
3250;BME280;1637;42.020;23.992;2022-12-31T10:26:25;93967.31;;;15.23;48.88
3250;BME280;1637;42.020;23.992;2022-12-31T10:28:55;93967.66;;;15.28;48.48
3250;BME280;1637;42.020;23.992;2022-12-31T10:31:37;93965.94;;;15.07;48.92
3250;BME280;1637;42.020;23.992;2022-12-31T10:34:13;93972.94;;;14.98;48.93
3250;BME280;1637;42.020;23.992;2022-12-31T10:36:52;93955.00;;;14.81;48.71
3250;BME280;1637;42.020;23.992;2022-12-31T10:39:28;93953.06;;;14.81;48.74
3250;BME280;1637;42.020;23.992;2022-12-31T10:42:27;93962.06;;;15.08;49.17
3250;BME280;1637;42.020;23.992;2022-12-31T10:57:24;93922.94;;;13.86;52.08
3250;BME280;1637;42.020;23.992;2022-12-31T11:00:15;93935.72;;;13.71;52.88
3250;BME280;1637;42.020;23.992;2022-12-31T11:03:01;93921.16;;;13.55;54.25
3250;BME280;1637;42.020;23.992;2022-12-31T11:12:04;93905.66;;;13.76;53.62
3250;BME280;1637;42.020;23.992;2022-12-31T11:14:48;93898.75;;;13.75;53.84
3250;BME280;1637;42.020;23.992;2022-12-31T11:17:33;93896.13;;;13.65;54.72
3250;BME280;1637;42.020;23.992;2022-12-31T11:20:26;93894.44;;;13.92;54.26
3250;BME280;1637;42.020;23.992;2022-12-31T11:23:06;93900.72;;;13.68;54.75
3250;BME280;1637;42.020;23.992;2022-12-31T11:25:46;93888.41;;;13.70;55.00
3250;BME280;1637;42.020;23.992;2022-12-31T11:28:41;93885.19;;;13.17;55.30
3250;BME280;1637;42.020;23.992;2022-12-31T11:31:22;93859.41;;;13.12;55.13
3250;BME280;1637;42.020;23.992;2022-12-31T11:34:07;93890.00;;;13.57;55.48
3250;BME280;1637;42.020;23.992;2022-12-31T11:36:44;93882.38;;;13.45;55.55
3250;BME280;1637;42.020;23.992;2022-12-31T11:39:28;93880.00;;;13.61;54.41
3250;BME280;1637;42.020;23.992;2022-12-31T11:42:02;93876.84;;;13.73;54.80
3250;BME280;1637;42.020;23.992;2022-12-31T11:44:43;93883.44;;;14.24;53.98
3250;BME280;1637;42.020;23.992;2022-12-31T11:47:34;93881.09;;;13.71;54.93
3250;BME280;1637;42.020;23.992;2022-12-31T11:50:24;93879.97;;;13.68;54.48
3250;BME280;1637;42.020;23.992;2022-12-31T11:52:59;93877.91;;;13.87;54.21
3250;BME280;1637;42.020;23.992;2022-12-31T11:55:45;93891.38;;;13.90;54.58
3250;BME280;1637;42.020;23.992;2022-12-31T11:58:16;93888.38;;;13.74;55.48
3250;BME280;1637;42.020;23.992;2022-12-31T12:00:50;93881.78;;;13.86;55.17
3250;BME280;1637;42.020;23.992;2022-12-31T12:03:21;93883.38;;;14.31;54.64
3250;BME280;1637;42.020;23.992;2022-12-31T12:05:49;93878.81;;;14.21;54.65
3250;BME280;1637;42.020;23.992;2022-12-31T12:08:16;93876.09;;;14.28;54.52
3250;BME280;1637;42.020;23.992;2022-12-31T12:10:45;93882.47;;;14.52;54.53
3250;BME280;1637;42.020;23.992;2022-12-31T12:13:19;93871.03;;;14.34;53.79
3250;BME280;1637;42.020;23.992;2022-12-31T12:15:48;93880.22;;;14.43;54.29
3250;BME280;1637;42.020;23.992;2022-12-31T12:18:28;93873.28;;;14.42;53.70
3250;BME280;1637;42.020;23.992;2022-12-31T12:21:05;93870.63;;;14.35;55.12
3250;BME280;1637;42.020;23.992;2022-12-31T12:23:33;93867.47;;;14.48;54.73
3250;BME280;1637;42.020;23.992;2022-12-31T12:26:00;93869.06;;;14.38;54.51
3250;BME280;1637;42.020;23.992;2022-12-31T12:28:29;93875.97;;;14.46;54.21
3250;BME280;1637;42.020;23.992;2022-12-31T12:30:59;93865.59;;;14.41;53.65
3250;BME280;1637;42.020;23.992;2022-12-31T12:33:29;93871.75;;;14.38;54.33
3250;BME280;1637;42.020;23.992;2022-12-31T12:36:07;93847.19;;;14.32;54.15
3250;BME280;1637;42.020;23.992;2022-12-31T12:38:35;93869.56;;;14.22;54.02
3250;BME280;1637;42.020;23.992;2022-12-31T12:41:05;93873.31;;;14.35;54.23
3250;BME280;1637;42.020;23.992;2022-12-31T12:43:33;93870.22;;;14.37;54.39
3250;BME280;1637;42.020;23.992;2022-12-31T12:46:02;93874.00;;;14.50;54.25
3250;BME280;1637;42.020;23.992;2022-12-31T12:48:36;93873.75;;;14.34;54.28
3250;BME280;1637;42.020;23.992;2022-12-31T12:51:15;93880.34;;;14.26;54.95
3250;BME280;1637;42.020;23.992;2022-12-31T12:53:54;93881.78;;;14.37;54.79
3250;BME280;1637;42.020;23.992;2022-12-31T12:56:32;93883.53;;;14.62;55.02
3250;BME280;1637;42.020;23.992;2022-12-31T12:59:18;93879.06;;;14.37;54.08
3250;BME280;1637;42.020;23.992;2022-12-31T13:01:57;93882.13;;;14.39;54.05
3250;BME280;1637;42.020;23.992;2022-12-31T13:04:43;93883.31;;;14.42;53.29
3250;BME280;1637;42.020;23.992;2022-12-31T13:07:25;93888.44;;;14.22;53.41
3250;BME280;1637;42.020;23.992;2022-12-31T13:10:06;93885.94;;;13.94;53.22
3250;BME280;1637;42.020;23.992;2022-12-31T13:12:42;93882.84;;;13.95;53.65
3250;BME280;1637;42.020;23.992;2022-12-31T13:15:15;93884.00;;;13.94;52.95
3250;BME280;1637;42.020;23.992;2022-12-31T13:17:56;93893.97;;;14.04;53.23
3250;BME280;1637;42.020;23.992;2022-12-31T13:20:30;93882.81;;;14.02;53.73
3250;BME280;1637;42.020;23.992;2022-12-31T13:23:02;93889.69;;;14.10;53.30
3250;BME280;1637;42.020;23.992;2022-12-31T13:25:37;93879.06;;;13.89;53.73
3250;BME280;1637;42.020;23.992;2022-12-31T13:28:10;93851.38;;;13.85;52.99
3250;BME280;1637;42.020;23.992;2022-12-31T13:30:40;93878.56;;;14.05;53.29
3250;BME280;1637;42.020;23.992;2022-12-31T13:33:15;93902.56;;;14.40;53.29
3250;BME280;1637;42.020;23.992;2022-12-31T13:35:47;93907.88;;;14.55;52.95
3250;BME280;1637;42.020;23.992;2022-12-31T13:38:18;93913.03;;;14.28;53.65
3250;BME280;1637;42.020;23.992;2022-12-31T13:40:51;93914.34;;;14.09;52.83
3250;BME280;1637;42.020;23.992;2022-12-31T13:43:26;93893.22;;;13.97;53.36
3250;BME280;1637;42.020;23.992;2022-12-31T13:46:03;93912.00;;;14.11;53.43
3250;BME280;1637;42.020;23.992;2022-12-31T13:48:35;93914.84;;;13.90;53.23
3250;BME280;1637;42.020;23.992;2022-12-31T13:51:12;93922.28;;;13.64;54.47
3250;BME280;1637;42.020;23.992;2022-12-31T13:53:45;93923.81;;;13.69;54.96
3250;BME280;1637;42.020;23.992;2022-12-31T13:56:18;93921.78;;;13.87;53.61
3250;BME280;1637;42.020;23.992;2022-12-31T13:58:51;93932.25;;;13.71;54.72